sensor_id;sensor_type;location;lat;lon;timestamp;pressure;altitude;pressure_sealevel;temperature;humidity
16525;BME280;8375;33.594;-117.718;2023-07-13T00:01:16;100032.84;;;34.15;18.19
16525;BME280;8375;33.594;-117.718;2023-07-13T00:03:45;100034.53;;;34.06;18.75
16525;BME280;8375;33.594;-117.718;2023-07-13T00:06:14;100040.28;;;33.94;18.40
16525;BME280;8375;33.594;-117.718;2023-07-13T00:08:42;100034.63;;;33.85;18.57
16525;BME280;8375;33.594;-117.718;2023-07-13T00:11:11;100029.81;;;33.82;19.07
16525;BME280;8375;33.594;-117.718;2023-07-13T00:13:41;100034.13;;;33.78;19.13
16525;BME280;8375;33.594;-117.718;2023-07-13T00:16:13;100031.75;;;33.76;19.10
16525;BME280;8375;33.594;-117.718;2023-07-13T00:18:42;100034.66;;;33.80;18.61
16525;BME280;8375;33.594;-117.718;2023-07-13T00:21:11;100034.69;;;33.75;19.20
16525;BME280;8375;33.594;-117.718;2023-07-13T00:23:41;100023.41;;;33.73;18.85
16525;BME280;8375;33.594;-117.718;2023-07-13T00:26:11;100029.63;;;33.68;19.39
16525;BME280;8375;33.594;-117.718;2023-07-13T00:28:40;100028.06;;;33.62;19.52
16525;BME280;8375;33.594;-117.718;2023-07-13T00:31:11;100027.53;;;33.60;19.22
16525;BME280;8375;33.594;-117.718;2023-07-13T00:33:41;100019.25;;;33.41;19.53
16525;BME280;8375;33.594;-117.718;2023-07-13T00:36:14;100021.97;;;33.25;19.60
16525;BME280;8375;33.594;-117.718;2023-07-13T00:38:43;100022.75;;;33.36;19.47
16525;BME280;8375;33.594;-117.718;2023-07-13T00:41:13;100018.44;;;33.45;19.88
16525;BME280;8375;33.594;-117.718;2023-07-13T00:43:44;100021.09;;;33.56;18.76
16525;BME280;8375;33.594;-117.718;2023-07-13T00:46:32;100016.75;;;33.60;18.95
16525;BME280;8375;33.594;-117.718;2023-07-13T00:49:04;100019.13;;;33.67;18.62
16525;BME280;8375;33.594;-117.718;2023-07-13T00:51:38;100019.66;;;33.69;17.98
16525;BME280;8375;33.594;-117.718;2023-07-13T00:54:11;100021.59;;;33.63;17.75
16525;BME280;8375;33.594;-117.718;2023-07-13T00:56:42;100014.34;;;33.53;18.15
16525;BME280;8375;33.594;-117.718;2023-07-13T00:59:14;100015.97;;;33.54;17.57
16525;BME280;8375;33.594;-117.718;2023-07-13T01:01:46;100010.31;;;33.56;17.00
16525;BME280;8375;33.594;-117.718;2023-07-13T01:04:15;100013.09;;;33.40;16.56
16525;BME280;8375;33.594;-117.718;2023-07-13T01:06:45;100008.31;;;33.16;17.57
16525;BME280;8375;33.594;-117.718;2023-07-13T01:09:14;100006.19;;;33.08;17.45
16525;BME280;8375;33.594;-117.718;2023-07-13T01:11:45;100006.78;;;32.95;17.74
16525;BME280;8375;33.594;-117.718;2023-07-13T01:14:14;100010.00;;;32.71;16.42
16525;BME280;8375;33.594;-117.718;2023-07-13T01:16:45;100010.56;;;32.68;17.08
16525;BME280;8375;33.594;-117.718;2023-07-13T01:19:25;100011.63;;;32.56;16.75
16525;BME280;8375;33.594;-117.718;2023-07-13T01:22:05;100011.09;;;32.44;16.46
16525;BME280;8375;33.594;-117.718;2023-07-13T01:24:35;100012.72;;;32.40;18.09
16525;BME280;8375;33.594;-117.718;2023-07-13T01:27:06;100009.47;;;32.22;16.44
16525;BME280;8375;33.594;-117.718;2023-07-13T01:29:36;100006.78;;;32.17;17.95
16525;BME280;8375;33.594;-117.718;2023-07-13T01:32:09;100016.44;;;32.08;16.88
16525;BME280;8375;33.594;-117.718;2023-07-13T01:34:39;100016.44;;;32.02;17.21
16525;BME280;8375;33.594;-117.718;2023-07-13T01:37:11;100019.63;;;31.89;17.23
16525;BME280;8375;33.594;-117.718;2023-07-13T01:39:40;100015.81;;;31.80;16.86
16525;BME280;8375;33.594;-117.718;2023-07-13T01:42:09;100022.22;;;31.73;16.09
16525;BME280;8375;33.594;-117.718;2023-07-13T01:44:38;100022.97;;;31.58;16.40
16525;BME280;8375;33.594;-117.718;2023-07-13T01:47:07;100013.84;;;31.49;16.62
16525;BME280;8375;33.594;-117.718;2023-07-13T01:49:36;100012.72;;;31.40;17.91
16525;BME280;8375;33.594;-117.718;2023-07-13T01:52:06;100018.63;;;31.37;16.77
16525;BME280;8375;33.594;-117.718;2023-07-13T01:54:37;100007.88;;;31.31;16.90
16525;BME280;8375;33.594;-117.718;2023-07-13T01:57:06;100013.44;;;31.25;16.71
16525;BME280;8375;33.594;-117.718;2023-07-13T01:59:35;100017.19;;;31.24;18.36
16525;BME280;8375;33.594;-117.718;2023-07-13T02:02:04;100012.63;;;31.19;17.98
16525;BME280;8375;33.594;-117.718;2023-07-13T02:04:33;100015.75;;;31.06;18.02
16525;BME280;8375;33.594;-117.718;2023-07-13T02:07:03;100021.28;;;30.94;17.09
16525;BME280;8375;33.594;-117.718;2023-07-13T02:09:32;100013.50;;;30.87;17.67
16525;BME280;8375;33.594;-117.718;2023-07-13T02:12:03;100020.06;;;30.69;17.57
16525;BME280;8375;33.594;-117.718;2023-07-13T02:14:32;100022.41;;;30.60;17.93
16525;BME280;8375;33.594;-117.718;2023-07-13T02:17:01;100022.09;;;30.56;17.81
16525;BME280;8375;33.594;-117.718;2023-07-13T02:19:30;100028.69;;;30.43;18.33
16525;BME280;8375;33.594;-117.718;2023-07-13T02:21:59;100031.28;;;30.33;20.54
16525;BME280;8375;33.594;-117.718;2023-07-13T02:24:28;100035.97;;;30.21;17.81
16525;BME280;8375;33.594;-117.718;2023-07-13T02:26:57;100031.66;;;30.14;17.40
16525;BME280;8375;33.594;-117.718;2023-07-13T02:29:27;100037.19;;;30.08;19.56
16525;BME280;8375;33.594;-117.718;2023-07-13T02:31:56;100038.09;;;29.96;18.18
16525;BME280;8375;33.594;-117.718;2023-07-13T02:34:25;100041.78;;;29.90;18.58
16525;BME280;8375;33.594;-117.718;2023-07-13T02:36:54;100038.22;;;29.79;17.56
16525;BME280;8375;33.594;-117.718;2023-07-13T02:39:23;100044.00;;;29.71;19.35
16525;BME280;8375;33.594;-117.718;2023-07-13T02:41:51;100037.69;;;29.60;18.75
16525;BME280;8375;33.594;-117.718;2023-07-13T02:44:20;100040.19;;;29.45;19.15
16525;BME280;8375;33.594;-117.718;2023-07-13T02:46:51;100039.22;;;29.34;18.38
16525;BME280;8375;33.594;-117.718;2023-07-13T02:49:20;100040.72;;;29.24;20.17
16525;BME280;8375;33.594;-117.718;2023-07-13T02:51:48;100039.81;;;29.19;19.71
16525;BME280;8375;33.594;-117.718;2023-07-13T02:54:17;100045.59;;;29.10;21.39
16525;BME280;8375;33.594;-117.718;2023-07-13T02:56:46;100050.78;;;29.00;20.53
16525;BME280;8375;33.594;-117.718;2023-07-13T02:59:15;100044.78;;;28.93;20.80
16525;BME280;8375;33.594;-117.718;2023-07-13T03:01:44;100048.38;;;28.81;21.71
16525;BME280;8375;33.594;-117.718;2023-07-13T03:04:14;100044.13;;;28.68;20.76
16525;BME280;8375;33.594;-117.718;2023-07-13T03:06:46;100058.81;;;28.54;19.86
16525;BME280;8375;33.594;-117.718;2023-07-13T03:09:17;100057.38;;;28.46;20.56
16525;BME280;8375;33.594;-117.718;2023-07-13T03:11:46;100060.19;;;28.39;20.98
16525;BME280;8375;33.594;-117.718;2023-07-13T03:14:15;100059.53;;;28.32;19.75
16525;BME280;8375;33.594;-117.718;2023-07-13T03:16:44;100064.19;;;28.25;20.32
16525;BME280;8375;33.594;-117.718;2023-07-13T03:19:15;100061.47;;;28.08;19.41
16525;BME280;8375;33.594;-117.718;2023-07-13T03:21:44;100058.72;;;28.03;19.66
16525;BME280;8375;33.594;-117.718;2023-07-13T03:24:13;100063.22;;;28.02;21.35
16525;BME280;8375;33.594;-117.718;2023-07-13T03:26:43;100061.28;;;27.98;19.86
16525;BME280;8375;33.594;-117.718;2023-07-13T03:29:12;100064.06;;;27.91;20.54
16525;BME280;8375;33.594;-117.718;2023-07-13T03:31:41;100063.75;;;27.87;21.93
16525;BME280;8375;33.594;-117.718;2023-07-13T03:34:10;100065.97;;;27.78;20.60
16525;BME280;8375;33.594;-117.718;2023-07-13T03:36:41;100077.34;;;27.74;20.93
16525;BME280;8375;33.594;-117.718;2023-07-13T03:39:10;100070.75;;;27.64;20.86
16525;BME280;8375;33.594;-117.718;2023-07-13T03:41:39;100070.53;;;27.54;20.63
16525;BME280;8375;33.594;-117.718;2023-07-13T03:44:09;100071.56;;;27.41;22.10
16525;BME280;8375;33.594;-117.718;2023-07-13T03:46:38;100068.34;;;27.27;20.94
16525;BME280;8375;33.594;-117.718;2023-07-13T03:49:08;100066.81;;;27.19;20.79
16525;BME280;8375;33.594;-117.718;2023-07-13T03:51:38;100074.25;;;27.05;20.84
16525;BME280;8375;33.594;-117.718;2023-07-13T03:54:08;100080.03;;;27.02;21.31
16525;BME280;8375;33.594;-117.718;2023-07-13T03:56:37;100083.38;;;26.98;22.95
16525;BME280;8375;33.594;-117.718;2023-07-13T03:59:07;100083.81;;;26.94;21.51
16525;BME280;8375;33.594;-117.718;2023-07-13T04:01:39;100084.63;;;26.83;21.85
16525;BME280;8375;33.594;-117.718;2023-07-13T04:04:09;100085.16;;;26.73;21.74
16525;BME280;8375;33.594;-117.718;2023-07-13T04:06:39;100091.28;;;26.74;22.08
16525;BME280;8375;33.594;-117.718;2023-07-13T04:09:14;100089.66;;;26.73;22.43
16525;BME280;8375;33.594;-117.718;2023-07-13T04:11:43;100094.84;;;26.68;23.00
16525;BME280;8375;33.594;-117.718;2023-07-13T04:14:13;100102.13;;;26.60;23.42
16525;BME280;8375;33.594;-117.718;2023-07-13T04:16:43;100100.50;;;26.59;23.16
16525;BME280;8375;33.594;-117.718;2023-07-13T04:19:13;100111.69;;;26.49;22.48
16525;BME280;8375;33.594;-117.718;2023-07-13T04:21:43;100112.97;;;26.47;23.17
16525;BME280;8375;33.594;-117.718;2023-07-13T04:24:14;100118.00;;;26.36;23.13
16525;BME280;8375;33.594;-117.718;2023-07-13T04:26:44;100123.34;;;26.36;23.15
16525;BME280;8375;33.594;-117.718;2023-07-13T04:29:14;100119.25;;;26.34;22.96
16525;BME280;8375;33.594;-117.718;2023-07-13T04:31:43;100120.97;;;26.28;23.79
16525;BME280;8375;33.594;-117.718;2023-07-13T04:34:12;100128.81;;;26.23;23.58
16525;BME280;8375;33.594;-117.718;2023-07-13T04:36:41;100129.13;;;26.15;23.56
16525;BME280;8375;33.594;-117.718;2023-07-13T04:39:10;100129.16;;;26.08;22.87
16525;BME280;8375;33.594;-117.718;2023-07-13T04:41:41;100130.50;;;25.99;23.63
16525;BME280;8375;33.594;-117.718;2023-07-13T04:44:10;100143.88;;;25.92;24.71
16525;BME280;8375;33.594;-117.718;2023-07-13T04:46:40;100146.75;;;25.90;25.04
16525;BME280;8375;33.594;-117.718;2023-07-13T04:49:10;100147.63;;;25.84;24.13
16525;BME280;8375;33.594;-117.718;2023-07-13T04:51:43;100144.66;;;25.74;24.36
16525;BME280;8375;33.594;-117.718;2023-07-13T04:54:12;100142.13;;;25.60;25.73
16525;BME280;8375;33.594;-117.718;2023-07-13T04:56:43;100146.69;;;25.53;27.17
16525;BME280;8375;33.594;-117.718;2023-07-13T04:59:13;100150.03;;;25.48;27.79
16525;BME280;8375;33.594;-117.718;2023-07-13T05:01:42;100153.72;;;25.47;28.94
16525;BME280;8375;33.594;-117.718;2023-07-13T05:04:11;100163.31;;;25.42;29.42
16525;BME280;8375;33.594;-117.718;2023-07-13T05:06:40;100152.53;;;25.37;30.46
16525;BME280;8375;33.594;-117.718;2023-07-13T05:09:10;100160.75;;;25.35;30.44
16525;BME280;8375;33.594;-117.718;2023-07-13T05:11:39;100168.13;;;25.33;30.33
16525;BME280;8375;33.594;-117.718;2023-07-13T05:14:10;100167.53;;;25.31;29.86
16525;BME280;8375;33.594;-117.718;2023-07-13T05:16:39;100173.84;;;25.30;30.13
16525;BME280;8375;33.594;-117.718;2023-07-13T05:19:09;100169.44;;;25.17;30.61
16525;BME280;8375;33.594;-117.718;2023-07-13T05:21:38;100173.56;;;25.13;31.42
16525;BME280;8375;33.594;-117.718;2023-07-13T05:24:07;100169.34;;;25.05;31.92
16525;BME280;8375;33.594;-117.718;2023-07-13T05:26:37;100169.53;;;25.03;32.08
16525;BME280;8375;33.594;-117.718;2023-07-13T05:29:06;100181.03;;;24.97;32.45
16525;BME280;8375;33.594;-117.718;2023-07-13T05:31:37;100184.94;;;24.88;33.07
16525;BME280;8375;33.594;-117.718;2023-07-13T05:34:06;100184.34;;;24.86;33.38
16525;BME280;8375;33.594;-117.718;2023-07-13T05:36:35;100183.16;;;24.82;33.71
16525;BME280;8375;33.594;-117.718;2023-07-13T05:39:04;100181.53;;;24.81;34.14
16525;BME280;8375;33.594;-117.718;2023-07-13T05:41:34;100185.63;;;24.77;34.87
16525;BME280;8375;33.594;-117.718;2023-07-13T05:44:03;100182.16;;;24.69;35.49
16525;BME280;8375;33.594;-117.718;2023-07-13T05:46:32;100177.72;;;24.63;35.60
16525;BME280;8375;33.594;-117.718;2023-07-13T05:49:04;100177.53;;;24.58;35.75
16525;BME280;8375;33.594;-117.718;2023-07-13T05:51:33;100177.56;;;24.51;36.28
16525;BME280;8375;33.594;-117.718;2023-07-13T05:54:03;100175.53;;;24.46;36.50
16525;BME280;8375;33.594;-117.718;2023-07-13T05:56:32;100173.31;;;24.43;36.89
16525;BME280;8375;33.594;-117.718;2023-07-13T05:59:00;100176.00;;;24.37;37.52
16525;BME280;8375;33.594;-117.718;2023-07-13T06:01:30;100181.72;;;24.34;37.89
16525;BME280;8375;33.594;-117.718;2023-07-13T06:03:59;100184.38;;;24.27;38.51
16525;BME280;8375;33.594;-117.718;2023-07-13T06:06:30;100184.81;;;24.24;38.23
16525;BME280;8375;33.594;-117.718;2023-07-13T06:08:58;100180.75;;;24.21;38.52
16525;BME280;8375;33.594;-117.718;2023-07-13T06:11:28;100185.44;;;24.19;39.17
16525;BME280;8375;33.594;-117.718;2023-07-13T06:13:57;100187.06;;;24.13;39.58
16525;BME280;8375;33.594;-117.718;2023-07-13T06:16:26;100181.59;;;24.08;39.85
16525;BME280;8375;33.594;-117.718;2023-07-13T06:18:55;100186.50;;;24.05;40.41
16525;BME280;8375;33.594;-117.718;2023-07-13T06:21:24;100186.31;;;23.99;40.97
16525;BME280;8375;33.594;-117.718;2023-07-13T06:23:54;100182.78;;;23.99;40.88
16525;BME280;8375;33.594;-117.718;2023-07-13T06:26:23;100180.56;;;23.96;41.46
16525;BME280;8375;33.594;-117.718;2023-07-13T06:28:53;100188.75;;;23.94;42.21
16525;BME280;8375;33.594;-117.718;2023-07-13T06:31:22;100177.72;;;23.91;42.15
16525;BME280;8375;33.594;-117.718;2023-07-13T06:33:51;100179.56;;;23.90;42.25
16525;BME280;8375;33.594;-117.718;2023-07-13T06:36:20;100183.44;;;23.87;41.99
16525;BME280;8375;33.594;-117.718;2023-07-13T06:38:49;100182.81;;;23.85;42.28
16525;BME280;8375;33.594;-117.718;2023-07-13T06:41:20;100177.94;;;23.82;42.67
16525;BME280;8375;33.594;-117.718;2023-07-13T06:43:51;100175.88;;;23.78;42.65
16525;BME280;8375;33.594;-117.718;2023-07-13T06:46:21;100179.97;;;23.73;42.60
16525;BME280;8375;33.594;-117.718;2023-07-13T06:48:50;100178.16;;;23.74;43.23
16525;BME280;8375;33.594;-117.718;2023-07-13T06:51:19;100174.88;;;23.72;43.33
16525;BME280;8375;33.594;-117.718;2023-07-13T06:53:48;100179.78;;;23.68;43.33
16525;BME280;8375;33.594;-117.718;2023-07-13T06:56:19;100176.53;;;23.59;43.91
16525;BME280;8375;33.594;-117.718;2023-07-13T06:58:48;100179.78;;;23.55;44.33
16525;BME280;8375;33.594;-117.718;2023-07-13T07:01:17;100177.75;;;23.50;44.60
16525;BME280;8375;33.594;-117.718;2023-07-13T07:03:45;100175.53;;;23.47;44.61
16525;BME280;8375;33.594;-117.718;2023-07-13T07:06:17;100174.06;;;23.44;44.42
16525;BME280;8375;33.594;-117.718;2023-07-13T07:08:46;100184.06;;;23.42;44.66
16525;BME280;8375;33.594;-117.718;2023-07-13T07:11:21;100185.09;;;23.35;45.07
16525;BME280;8375;33.594;-117.718;2023-07-13T07:13:51;100181.63;;;23.27;44.61
16525;BME280;8375;33.594;-117.718;2023-07-13T07:16:21;100192.78;;;23.23;44.54
16525;BME280;8375;33.594;-117.718;2023-07-13T07:18:51;100181.56;;;23.21;44.66
16525;BME280;8375;33.594;-117.718;2023-07-13T07:21:19;100188.72;;;23.20;44.71
16525;BME280;8375;33.594;-117.718;2023-07-13T07:23:49;100184.84;;;23.16;44.68
16525;BME280;8375;33.594;-117.718;2023-07-13T07:26:20;100188.28;;;23.10;44.64
16525;BME280;8375;33.594;-117.718;2023-07-13T07:28:49;100176.88;;;23.03;44.81
16525;BME280;8375;33.594;-117.718;2023-07-13T07:31:18;100183.59;;;22.98;45.08
16525;BME280;8375;33.594;-117.718;2023-07-13T07:33:47;100180.13;;;22.91;45.22
16525;BME280;8375;33.594;-117.718;2023-07-13T07:36:16;100181.94;;;22.84;45.38
16525;BME280;8375;33.594;-117.718;2023-07-13T07:38:44;100181.28;;;22.75;45.98
16525;BME280;8375;33.594;-117.718;2023-07-13T07:41:13;100179.63;;;22.67;45.75
16525;BME280;8375;33.594;-117.718;2023-07-13T07:43:44;100176.78;;;22.62;45.30
16525;BME280;8375;33.594;-117.718;2023-07-13T07:46:13;100175.09;;;22.54;47.12
16525;BME280;8375;33.594;-117.718;2023-07-13T07:48:42;100173.06;;;22.50;47.46
16525;BME280;8375;33.594;-117.718;2023-07-13T07:51:11;100170.81;;;22.47;47.12
16525;BME280;8375;33.594;-117.718;2023-07-13T07:53:40;100167.72;;;22.43;47.89
16525;BME280;8375;33.594;-117.718;2023-07-13T07:56:09;100163.91;;;22.46;48.05
16525;BME280;8375;33.594;-117.718;2023-07-13T07:58:38;100171.00;;;22.45;46.61
16525;BME280;8375;33.594;-117.718;2023-07-13T08:01:09;100165.22;;;22.35;46.70
16525;BME280;8375;33.594;-117.718;2023-07-13T08:03:38;100169.66;;;22.27;47.33
16525;BME280;8375;33.594;-117.718;2023-07-13T08:06:06;100171.06;;;22.23;47.80
16525;BME280;8375;33.594;-117.718;2023-07-13T08:08:35;100161.72;;;22.21;47.78
16525;BME280;8375;33.594;-117.718;2023-07-13T08:11:04;100170.03;;;22.18;48.42
16525;BME280;8375;33.594;-117.718;2023-07-13T08:13:34;100173.69;;;22.17;48.33
16525;BME280;8375;33.594;-117.718;2023-07-13T08:16:04;100176.28;;;22.10;48.45
16525;BME280;8375;33.594;-117.718;2023-07-13T08:18:35;100176.13;;;22.11;48.61
16525;BME280;8375;33.594;-117.718;2023-07-13T08:21:05;100175.50;;;22.09;48.43
16525;BME280;8375;33.594;-117.718;2023-07-13T08:23:35;100175.25;;;22.04;48.42
16525;BME280;8375;33.594;-117.718;2023-07-13T08:26:04;100171.38;;;22.00;48.22
16525;BME280;8375;33.594;-117.718;2023-07-13T08:28:34;100177.59;;;21.92;48.57
16525;BME280;8375;33.594;-117.718;2023-07-13T08:31:03;100169.06;;;21.90;48.47
16525;BME280;8375;33.594;-117.718;2023-07-13T08:33:34;100169.03;;;21.83;48.19
16525;BME280;8375;33.594;-117.718;2023-07-13T08:36:05;100172.69;;;21.82;48.14
16525;BME280;8375;33.594;-117.718;2023-07-13T08:38:37;100171.44;;;21.78;48.57
16525;BME280;8375;33.594;-117.718;2023-07-13T08:41:12;100168.78;;;21.78;48.59
16525;BME280;8375;33.594;-117.718;2023-07-13T08:43:45;100170.59;;;21.78;48.84
16525;BME280;8375;33.594;-117.718;2023-07-13T08:46:19;100166.72;;;21.74;48.75
16525;BME280;8375;33.594;-117.718;2023-07-13T08:48:53;100164.03;;;21.67;48.73
16525;BME280;8375;33.594;-117.718;2023-07-13T08:51:35;100165.28;;;21.71;48.49
16525;BME280;8375;33.594;-117.718;2023-07-13T08:54:15;100165.84;;;21.66;48.48
16525;BME280;8375;33.594;-117.718;2023-07-13T08:56:46;100161.44;;;21.74;50.32
16525;BME280;8375;33.594;-117.718;2023-07-13T08:59:16;100160.00;;;21.71;49.62
16525;BME280;8375;33.594;-117.718;2023-07-13T09:01:58;100159.28;;;21.62;49.44
16525;BME280;8375;33.594;-117.718;2023-07-13T09:04:35;100156.78;;;21.54;49.59
16525;BME280;8375;33.594;-117.718;2023-07-13T09:07:14;100159.63;;;21.52;50.46
16525;BME280;8375;33.594;-117.718;2023-07-13T09:09:55;100157.38;;;21.49;50.77
16525;BME280;8375;33.594;-117.718;2023-07-13T09:12:35;100151.47;;;21.47;50.96
16525;BME280;8375;33.594;-117.718;2023-07-13T09:15:23;100156.13;;;21.45;51.46
16525;BME280;8375;33.594;-117.718;2023-07-13T09:17:55;100157.31;;;21.43;52.04
16525;BME280;8375;33.594;-117.718;2023-07-13T09:20:30;100154.50;;;21.44;54.04
16525;BME280;8375;33.594;-117.718;2023-07-13T09:23:03;100152.41;;;21.39;55.13
16525;BME280;8375;33.594;-117.718;2023-07-13T09:25:34;100158.06;;;21.36;55.76
16525;BME280;8375;33.594;-117.718;2023-07-13T09:28:11;100155.19;;;21.31;56.40
16525;BME280;8375;33.594;-117.718;2023-07-13T09:30:46;100153.94;;;21.27;57.19
16525;BME280;8375;33.594;-117.718;2023-07-13T09:33:18;100146.94;;;21.19;57.85
16525;BME280;8375;33.594;-117.718;2023-07-13T09:35:48;100145.69;;;21.15;58.50
16525;BME280;8375;33.594;-117.718;2023-07-13T09:38:18;100138.16;;;21.12;59.77
16525;BME280;8375;33.594;-117.718;2023-07-13T09:41:00;100143.81;;;21.09;61.28
16525;BME280;8375;33.594;-117.718;2023-07-13T09:43:35;100137.47;;;21.03;61.44
16525;BME280;8375;33.594;-117.718;2023-07-13T09:46:04;100135.00;;;21.02;61.98
16525;BME280;8375;33.594;-117.718;2023-07-13T09:48:36;100138.59;;;20.94;62.38
16525;BME280;8375;33.594;-117.718;2023-07-13T09:51:13;100131.06;;;20.91;62.36
16525;BME280;8375;33.594;-117.718;2023-07-13T09:53:43;100127.81;;;20.89;62.96
16525;BME280;8375;33.594;-117.718;2023-07-13T09:56:21;100121.69;;;20.88;63.66
16525;BME280;8375;33.594;-117.718;2023-07-13T09:58:51;100120.44;;;20.84;63.85
16525;BME280;8375;33.594;-117.718;2023-07-13T10:01:33;100121.00;;;20.79;63.97
16525;BME280;8375;33.594;-117.718;2023-07-13T10:04:02;100116.88;;;20.77;64.69
16525;BME280;8375;33.594;-117.718;2023-07-13T10:06:41;100119.25;;;20.72;65.00
16525;BME280;8375;33.594;-117.718;2023-07-13T10:09:10;100120.91;;;20.73;65.62
16525;BME280;8375;33.594;-117.718;2023-07-13T10:11:42;100123.91;;;20.70;66.06
16525;BME280;8375;33.594;-117.718;2023-07-13T10:14:14;100123.28;;;20.67;65.83
16525;BME280;8375;33.594;-117.718;2023-07-13T10:16:45;100121.84;;;20.65;66.15
16525;BME280;8375;33.594;-117.718;2023-07-13T10:19:18;100128.13;;;20.64;66.34
16525;BME280;8375;33.594;-117.718;2023-07-13T10:21:54;100124.84;;;20.62;66.96
16525;BME280;8375;33.594;-117.718;2023-07-13T10:24:24;100121.59;;;20.60;67.14
16525;BME280;8375;33.594;-117.718;2023-07-13T10:26:57;100123.59;;;20.58;67.52
16525;BME280;8375;33.594;-117.718;2023-07-13T10:29:27;100119.75;;;20.60;68.20
16525;BME280;8375;33.594;-117.718;2023-07-13T10:31:57;100121.13;;;20.56;68.02
16525;BME280;8375;33.594;-117.718;2023-07-13T10:34:26;100120.13;;;20.57;68.42
16525;BME280;8375;33.594;-117.718;2023-07-13T10:36:56;100119.94;;;20.59;68.50
16525;BME280;8375;33.594;-117.718;2023-07-13T10:39:27;100113.84;;;20.58;67.90
16525;BME280;8375;33.594;-117.718;2023-07-13T10:41:59;100116.22;;;20.53;67.18
16525;BME280;8375;33.594;-117.718;2023-07-13T10:44:32;100117.22;;;20.52;67.14
16525;BME280;8375;33.594;-117.718;2023-07-13T10:47:04;100114.53;;;20.45;67.66
16525;BME280;8375;33.594;-117.718;2023-07-13T10:49:36;100115.16;;;20.47;68.37
16525;BME280;8375;33.594;-117.718;2023-07-13T10:52:40;100113.91;;;20.43;68.82
16525;BME280;8375;33.594;-117.718;2023-07-13T10:55:37;100120.34;;;20.41;68.68
16525;BME280;8375;33.594;-117.718;2023-07-13T10:58:15;100121.34;;;20.40;69.77
16525;BME280;8375;33.594;-117.718;2023-07-13T11:01:03;100105.38;;;20.26;70.15
16525;BME280;8375;33.594;-117.718;2023-07-13T11:03:33;100106.75;;;20.22;70.46
16525;BME280;8375;33.594;-117.718;2023-07-13T11:06:09;100109.38;;;20.22;71.13
16525;BME280;8375;33.594;-117.718;2023-07-13T11:08:53;100117.47;;;20.20;71.03
16525;BME280;8375;33.594;-117.718;2023-07-13T11:11:36;100113.38;;;20.18;71.27
16525;BME280;8375;33.594;-117.718;2023-07-13T11:14:26;100118.84;;;20.16;72.04
16525;BME280;8375;33.594;-117.718;2023-07-13T11:16:56;100117.22;;;20.15;72.43
16525;BME280;8375;33.594;-117.718;2023-07-13T11:19:40;100114.22;;;20.03;73.12
16525;BME280;8375;33.594;-117.718;2023-07-13T11:22:42;100115.56;;;19.99;73.80
16525;BME280;8375;33.594;-117.718;2023-07-13T11:25:30;100115.13;;;19.96;74.16
16525;BME280;8375;33.594;-117.718;2023-07-13T11:28:16;100113.50;;;19.95;75.90
16525;BME280;8375;33.594;-117.718;2023-07-13T11:30:47;100112.88;;;19.92;76.33
16525;BME280;8375;33.594;-117.718;2023-07-13T11:33:18;100113.34;;;19.88;76.36
16525;BME280;8375;33.594;-117.718;2023-07-13T11:35:52;100112.34;;;19.89;76.98
16525;BME280;8375;33.594;-117.718;2023-07-13T11:38:30;100106.59;;;19.93;77.71
16525;BME280;8375;33.594;-117.718;2023-07-13T11:41:04;100115.28;;;19.94;77.15
16525;BME280;8375;33.594;-117.718;2023-07-13T11:43:33;100101.38;;;19.85;77.47
16525;BME280;8375;33.594;-117.718;2023-07-13T11:46:16;100114.03;;;19.90;77.06
16525;BME280;8375;33.594;-117.718;2023-07-13T11:48:45;100112.72;;;19.86;77.13
16525;BME280;8375;33.594;-117.718;2023-07-13T11:51:20;100114.09;;;19.82;76.63
16525;BME280;8375;33.594;-117.718;2023-07-13T11:53:51;100121.19;;;19.81;76.82
16525;BME280;8375;33.594;-117.718;2023-07-13T11:56:23;100124.97;;;19.78;77.38
16525;BME280;8375;33.594;-117.718;2023-07-13T11:58:53;100121.25;;;19.73;77.51
16525;BME280;8375;33.594;-117.718;2023-07-13T12:01:26;100128.34;;;19.72;77.43
16525;BME280;8375;33.594;-117.718;2023-07-13T12:03:55;100131.81;;;19.73;77.49
16525;BME280;8375;33.594;-117.718;2023-07-13T12:06:29;100127.69;;;19.70;77.93
16525;BME280;8375;33.594;-117.718;2023-07-13T12:08:59;100137.78;;;19.67;77.91
16525;BME280;8375;33.594;-117.718;2023-07-13T12:11:35;100133.31;;;19.67;78.07
16525;BME280;8375;33.594;-117.718;2023-07-13T12:14:05;100127.97;;;19.60;77.60
16525;BME280;8375;33.594;-117.718;2023-07-13T12:16:34;100125.41;;;19.52;77.71
16525;BME280;8375;33.594;-117.718;2023-07-13T12:19:03;100124.84;;;19.57;77.71
16525;BME280;8375;33.594;-117.718;2023-07-13T12:21:33;100131.13;;;19.56;78.78
16525;BME280;8375;33.594;-117.718;2023-07-13T12:24:03;100124.94;;;19.48;78.85
16525;BME280;8375;33.594;-117.718;2023-07-13T12:26:34;100124.56;;;19.52;78.91
16525;BME280;8375;33.594;-117.718;2023-07-13T12:29:06;100128.41;;;19.49;79.26
16525;BME280;8375;33.594;-117.718;2023-07-13T12:31:41;100130.19;;;19.48;79.45
16525;BME280;8375;33.594;-117.718;2023-07-13T12:34:13;100126.56;;;19.49;79.70
16525;BME280;8375;33.594;-117.718;2023-07-13T12:36:50;100136.00;;;19.44;79.72
16525;BME280;8375;33.594;-117.718;2023-07-13T12:39:21;100140.28;;;19.45;79.68
16525;BME280;8375;33.594;-117.718;2023-07-13T12:41:53;100144.91;;;19.43;79.97
16525;BME280;8375;33.594;-117.718;2023-07-13T12:44:27;100140.81;;;19.40;79.57
16525;BME280;8375;33.594;-117.718;2023-07-13T12:46:58;100148.25;;;19.37;79.48
16525;BME280;8375;33.594;-117.718;2023-07-13T12:49:30;100152.69;;;19.36;79.43
16525;BME280;8375;33.594;-117.718;2023-07-13T12:52:03;100151.22;;;19.33;79.28